Time;durP1;ratioP1;P1;durP2;ratioP2;P2;SDS_P1;SDS_P2;PMS_P1;PMS_P2;Temp;Humidity;BMP_temperature;BMP_pressure;BME280_temperature;BME280_humidity;BME280_pressure;Samples;Min_cycle;Max_cycle;Signal;HPM_P1;HPM_P2
2022/07/14 00:01:58;;;;;;;0.63;0.63;;;15.80;95.60;;;;;;5052398;28;20123;-74
2022/07/14 00:04:24;;;;;;;0.93;0.60;;;15.80;95.60;;;;;;5048790;28;20540;-73
2022/07/14 00:06:51;;;;;;;2.20;0.90;;;15.80;95.60;;;;;;5050804;28;20074;-77
2022/07/14 00:09:17;;;;;;;3.28;0.88;;;15.80;95.60;;;;;;5050586;28;20036;-74
2022/07/14 00:11:44;;;;;;;9.93;1.02;;;15.80;95.60;;;;;;5052617;28;20052;-76
2022/07/14 00:14:10;;;;;;;4.78;0.95;;;15.80;95.60;;;;;;5052772;28;20020;-72
2022/07/14 00:16:37;;;;;;;4.50;1.10;;;15.80;95.60;;;;;;5052913;28;20049;-72
2022/07/14 00:19:03;;;;;;;2.53;0.88;;;15.80;95.90;;;;;;5051001;28;20017;-73
2022/07/14 00:21:30;;;;;;;5.50;0.98;;;15.70;95.70;;;;;;5048669;28;20017;-72
2022/07/14 00:23:56;;;;;;;3.85;1.42;;;15.80;95.70;;;;;;5049956;28;20042;-74
2022/07/14 00:26:23;;;;;;;3.78;0.88;;;15.80;95.80;;;;;;5055971;28;20041;-72
2022/07/14 00:28:49;;;;;;;2.10;1.20;;;15.80;95.90;;;;;;5053387;28;20499;-73
2022/07/14 00:31:16;;;;;;;1.63;1.20;;;15.80;95.90;;;;;;5052275;28;20047;-75
2022/07/14 00:33:43;;;;;;;4.00;1.38;;;15.80;96.20;;;;;;5052333;28;20023;-72
2022/07/14 00:36:09;;;;;;;5.30;1.88;;;15.80;95.90;;;;;;5052830;28;20028;-73
2022/07/14 00:38:36;;;;;;;1.75;1.23;;;15.80;95.90;;;;;;5053253;28;20491;-72
2022/07/14 00:41:02;;;;;;;4.07;1.23;;;15.80;95.90;;;;;;5048954;28;20025;-78
2022/07/14 00:43:29;;;;;;;3.47;1.55;;;15.80;95.90;;;;;;5053203;28;20021;-75
2022/07/14 00:45:56;;;;;;;2.63;1.33;;;15.80;95.90;;;;;;5053209;28;20059;-73
2022/07/14 00:48:24;;;;;;;4.32;1.10;;;15.80;96.00;;;;;;5050170;28;20100;-73
2022/07/14 00:50:51;;;;;;;4.90;1.50;;;15.80;96.00;;;;;;5054071;28;20029;-73
2022/07/14 00:53:18;;;;;;;4.47;1.20;;;15.80;96.00;;;;;;5043759;28;20028;-73
2022/07/14 00:55:44;;;;;;;7.63;1.45;;;15.80;96.10;;;;;;5055608;28;20021;-73
2022/07/14 00:58:11;;;;;;;4.85;1.75;;;15.80;96.10;;;;;;5054568;28;20035;-73
2022/07/14 01:00:38;;;;;;;2.40;1.88;;;15.80;96.00;;;;;;5055410;28;20024;-75
2022/07/14 01:03:07;;;;;;;5.40;1.77;;;15.80;96.10;;;;;;5054836;28;20055;-73
2022/07/14 01:05:34;;;;;;;3.15;1.48;;;15.80;96.00;;;;;;5049527;28;20065;-73
2022/07/14 01:08:00;;;;;;;2.95;1.52;;;15.80;96.10;;;;;;5055817;28;20150;-73
2022/07/14 01:10:27;;;;;;;4.03;1.00;;;15.80;96.10;;;;;;5053167;28;20031;-74
2022/07/14 01:12:55;;;;;;;5.03;1.60;;;15.80;96.10;;;;;;5054528;28;20028;-75
2022/07/14 01:15:22;;;;;;;2.95;1.25;;;15.80;96.10;;;;;;5056719;28;20557;-74
2022/07/14 01:17:49;;;;;;;2.53;1.23;;;15.80;96.10;;;;;;5056898;28;20475;-74
2022/07/14 01:20:18;;;;;;;1.17;0.90;;;15.80;96.10;;;;;;5054067;28;20772;-75
2022/07/14 01:22:48;;;;;;;3.15;1.27;;;15.80;96.10;;;;;;5052155;28;20566;-74
2022/07/14 01:25:17;;;;;;;1.80;1.20;;;15.80;96.10;;;;;;5054984;28;20429;-74
2022/07/14 01:27:44;;;;;;;2.33;1.20;;;15.80;96.20;;;;;;5052834;28;20145;-74
2022/07/14 01:30:11;;;;;;;2.60;1.40;;;15.80;96.20;;;;;;5053340;28;20506;-75
2022/07/14 01:32:38;;;;;;;1.80;1.48;;;15.80;96.20;;;;;;5060365;28;20386;-74
2022/07/14 01:35:06;;;;;;;4.78;1.38;;;15.80;96.20;;;;;;5054242;28;20041;-74
2022/07/14 01:37:33;;;;;;;5.10;1.10;;;15.70;96.20;;;;;;5055674;28;20576;-74
2022/07/14 01:40:01;;;;;;;3.85;1.45;;;15.80;96.50;;;;;;5055065;28;20025;-74
2022/07/14 01:42:28;;;;;;;3.60;1.20;;;15.80;96.30;;;;;;5054527;28;20090;-75
2022/07/14 01:44:54;;;;;;;1.90;1.35;;;15.80;96.30;;;;;;5053519;28;20025;-75
2022/07/14 01:47:21;;;;;;;1.77;1.42;;;15.80;96.30;;;;;;5055312;28;20025;-77
2022/07/14 01:49:47;;;;;;;2.45;1.05;;;15.80;96.30;;;;;;5052100;28;20479;-74
2022/07/14 01:52:14;;;;;;;1.17;0.93;;;15.80;96.30;;;;;;5052730;28;20391;-74
2022/07/14 01:54:40;;;;;;;4.22;1.25;;;15.80;96.30;;;;;;5061028;28;20502;-74
2022/07/14 01:57:08;;;;;;;2.60;0.90;;;15.80;96.40;;;;;;5054457;28;20025;-74
2022/07/14 01:59:35;;;;;;;4.07;0.88;;;15.80;96.40;;;;;;5056423;28;20056;-74
2022/07/14 02:02:01;;;;;;;4.43;0.90;;;15.80;96.40;;;;;;5052530;28;20525;-74
2022/07/14 02:04:28;;;;;;;7.65;1.30;;;15.80;96.50;;;;;;5052966;28;20032;-74
2022/07/14 02:06:55;;;;;;;6.72;1.40;;;15.80;96.60;;;;;;5054553;28;20530;-73
2022/07/14 02:12:10;;;;;;;3.20;1.25;;;15.80;96.60;;;;;;5058142;28;20364;-73
2022/07/14 02:12:12;;;;;;;6.03;1.25;;;15.80;96.70;;;;;;5051941;28;20025;-74
2022/07/14 02:14:39;;;;;;;5.53;0.88;;;15.80;97.00;;;;;;5049834;28;20025;-75
2022/07/14 02:17:06;;;;;;;2.88;1.00;;;15.80;96.90;;;;;;5048412;28;20049;-75
2022/07/14 02:19:32;;;;;;;1.63;0.73;;;15.80;96.80;;;;;;5052463;28;20025;-76
2022/07/14 02:21:59;;;;;;;4.53;1.20;;;15.80;96.80;;;;;;5050737;28;20018;-76
2022/07/14 02:24:25;;;;;;;2.33;1.88;;;15.80;96.80;;;;;;5052797;28;20040;-74
2022/07/14 02:26:52;;;;;;;2.28;0.98;;;15.80;96.80;;;;;;5055741;28;20119;-74
2022/07/14 02:29:21;;;;;;;1.50;0.70;;;15.80;96.80;;;;;;5054227;28;20024;-74
2022/07/14 02:31:48;;;;;;;2.08;0.77;;;15.80;96.80;;;;;;5053261;28;20024;-74
2022/07/14 02:34:15;;;;;;;3.78;0.98;;;15.80;96.80;;;;;;5054738;28;20063;-74
2022/07/14 02:36:42;;;;;;;0.52;0.50;;;15.70;96.80;;;;;;5056048;28;20534;-73
2022/07/14 02:39:09;;;;;;;1.40;0.88;;;15.80;96.90;;;;;;5053402;28;20023;-73
2022/07/14 02:41:35;;;;;;;3.22;1.20;;;15.80;96.90;;;;;;5053542;28;20033;-74
2022/07/14 02:44:02;;;;;;;1.52;0.80;;;15.80;96.90;;;;;;5053490;28;20024;-74
2022/07/14 02:46:29;;;;;;;0.70;0.70;;;15.80;96.90;;;;;;5059509;28;20032;-74
2022/07/14 02:48:55;;;;;;;4.15;1.05;;;15.70;96.90;;;;;;5054443;28;20428;-74
2022/07/14 02:51:22;;;;;;;2.60;1.00;;;15.80;96.90;;;;;;5060199;28;20502;-75
2022/07/14 02:53:48;;;;;;;2.45;1.38;;;15.80;96.90;;;;;;5050753;28;20025;-75
2022/07/14 02:56:15;;;;;;;3.90;0.95;;;15.80;97.00;;;;;;5054974;28;20108;-75
2022/07/14 02:58:41;;;;;;;6.35;1.67;;;15.80;97.00;;;;;;5053848;28;20499;-75
2022/07/14 03:01:09;;;;;;;23.65;5.28;;;15.80;97.10;;;;;;5054327;28;20025;-74
2022/07/14 03:03:36;;;;;;;9.40;3.80;;;15.80;97.30;;;;;;5050466;28;20057;-74
2022/07/14 03:06:13;;;;;;;9.73;2.67;;;15.90;97.40;;;;;;5050040;28;20037;-73
2022/07/14 03:08:40;;;;;;;9.73;2.13;;;15.90;97.60;;;;;;5057613;28;20024;-79
2022/07/14 03:11:07;;;;;;;7.95;1.65;;;15.90;97.70;;;;;;5054092;28;20498;-73
2022/07/14 03:13:35;;;;;;;9.98;2.08;;;15.90;97.70;;;;;;5050804;28;20021;-74
2022/07/14 03:16:03;;;;;;;2.25;1.05;;;15.90;97.70;;;;;;5047191;28;20136;-74
2022/07/14 03:18:30;;;;;;;8.38;2.20;;;15.80;97.60;;;;;;5047933;28;20420;-74
2022/07/14 03:20:56;;;;;;;7.55;1.58;;;15.80;97.60;;;;;;5051192;28;20464;-74
2022/07/14 03:23:23;;;;;;;5.07;1.10;;;15.80;97.60;;;;;;5051731;28;20119;-75
2022/07/14 03:25:49;;;;;;;2.40;1.15;;;15.80;97.60;;;;;;5051394;28;20032;-75
2022/07/14 03:28:16;;;;;;;31.10;3.05;;;15.80;97.60;;;;;;5054670;28;20020;-75
2022/07/14 03:30:42;;;;;;;10.68;2.22;;;15.80;97.70;;;;;;5054146;28;20021;-77
2022/07/14 03:33:09;;;;;;;12.73;3.30;;;15.80;97.60;;;;;;5049985;28;20029;-75
2022/07/14 03:35:41;;;;;;;12.82;4.57;;;15.80;97.60;;;;;;5050369;28;20424;-76
2022/07/14 03:38:08;;;;;;;6.65;2.67;;;15.80;97.50;;;;;;5050493;28;20021;-76
2022/07/14 03:40:34;;;;;;;8.30;2.83;;;15.70;97.40;;;;;;5048274;28;20025;-77
2022/07/14 03:43:01;;;;;;;6.55;3.05;;;15.70;97.40;;;;;;5050476;28;21361;-76
2022/07/14 03:45:28;;;;;;;5.45;1.90;;;15.70;97.40;;;;;;5054605;28;20048;-77
2022/07/14 03:47:54;;;;;;;3.92;1.50;;;15.70;97.30;;;;;;5052955;28;20036;-75
2022/07/14 03:50:21;;;;;;;2.72;1.60;;;15.70;97.30;;;;;;5050423;28;20048;-76
2022/07/14 03:52:47;;;;;;;3.83;2.35;;;15.70;97.30;;;;;;5049449;28;20029;-75
2022/07/14 03:55:14;;;;;;;8.00;1.67;;;15.70;97.30;;;;;;5054934;28;20025;-76
2022/07/14 03:57:41;;;;;;;7.57;3.05;;;15.70;97.20;;;;;;5051947;28;20017;-76
2022/07/14 04:00:09;;;;;;;7.20;1.85;;;15.70;97.20;;;;;;5052949;28;20029;-74
2022/07/14 04:02:35;;;;;;;3.63;1.90;;;15.70;97.30;;;;;;5051123;28;20028;-75
2022/07/14 04:05:02;;;;;;;10.88;2.35;;;15.70;97.30;;;;;;5048750;28;20124;-75
2022/07/14 04:07:29;;;;;;;4.20;2.58;;;15.70;97.40;;;;;;5046983;28;20057;-72
2022/07/14 04:09:55;;;;;;;13.18;2.22;;;15.70;97.40;;;;;;5050555;28;20036;-77
2022/07/14 04:12:22;;;;;;;16.95;11.52;;;15.70;97.60;;;;;;5049210;28;20383;-78
2022/07/14 04:14:48;;;;;;;16.40;9.00;;;15.70;97.60;;;;;;5053094;28;20025;-73
2022/07/14 04:17:15;;;;;;;11.48;6.20;;;15.70;97.60;;;;;;5053209;28;20487;-75
2022/07/14 04:19:41;;;;;;;14.63;5.22;;;15.70;97.50;;;;;;5049026;28;20091;-73
2022/07/14 04:22:08;;;;;;;14.65;4.30;;;15.70;97.50;;;;;;5053730;28;20033;-78
2022/07/14 04:24:34;;;;;;;8.45;4.05;;;15.70;97.60;;;;;;5048058;28;20017;-75
2022/07/14 04:27:01;;;;;;;8.88;3.50;;;15.70;97.60;;;;;;5054350;28;20501;-72
2022/07/14 04:29:27;;;;;;;20.13;10.05;;;15.70;97.60;;;;;;5054967;28;20036;-72
2022/07/14 04:31:54;;;;;;;14.18;8.75;;;15.70;97.60;;;;;;5052541;28;20021;-75
2022/07/14 04:34:20;;;;;;;14.45;7.88;;;15.70;97.60;;;;;;5057575;28;20078;-73
2022/07/14 04:36:47;;;;;;;14.90;7.45;;;15.70;97.70;;;;;;5053125;28;20017;-78
2022/07/14 04:39:17;;;;;;;14.82;5.30;;;15.70;97.80;;;;;;5057003;28;20025;-77
2022/07/14 04:41:43;;;;;;;11.10;5.60;;;15.70;97.80;;;;;;5055897;28;20029;-77
2022/07/14 04:44:10;;;;;;;21.45;5.53;;;15.80;97.80;;;;;;5054078;28;20060;-76
2022/07/14 04:46:37;;;;;;;13.02;4.43;;;15.70;97.80;;;;;;5054364;28;20116;-87
2022/07/14 04:52:03;;;;;;;16.27;5.10;;;15.80;97.90;;;;;;5053287;28;20065;-76
2022/07/14 04:54:31;;;;;;;11.55;3.60;;;15.80;97.90;;;;;;5054645;28;20286;-75
2022/07/14 04:56:58;;;;;;;13.70;4.63;;;15.80;97.90;;;;;;5055159;28;20743;-77
2022/07/14 04:59:25;;;;;;;12.40;3.47;;;15.80;97.90;;;;;;5053972;28;20135;-73
2022/07/14 05:01:51;;;;;;;8.93;3.47;;;15.80;97.90;;;;;;5053696;28;20034;-74
2022/07/14 05:04:18;;;;;;;9.40;3.58;;;15.70;97.90;;;;;;5056495;28;20491;-74
2022/07/14 05:06:46;;;;;;;9.52;3.25;;;15.80;97.90;;;;;;5052271;28;20044;-76
2022/07/14 05:09:13;;;;;;;17.50;4.55;;;15.80;97.90;;;;;;5056252;28;20028;-73
2022/07/14 05:11:41;;;;;;;9.75;3.53;;;15.70;97.90;;;;;;5055841;28;20071;-75
2022/07/14 05:14:08;;;;;;;14.45;4.70;;;15.70;98.00;;;;;;5054142;28;20013;-75
2022/07/14 05:16:34;;;;;;;17.27;5.03;;;15.70;98.00;;;;;;5051020;28;20044;-77
2022/07/14 05:19:01;;;;;;;10.20;3.70;;;15.70;97.90;;;;;;5055035;28;20107;-74
2022/07/14 05:21:27;;;;;;;14.57;5.03;;;15.70;97.90;;;;;;5052392;28;20024;-75
2022/07/14 05:23:54;;;;;;;11.15;3.90;;;15.80;98.00;;;;;;5053491;28;20112;-74
2022/07/14 05:26:20;;;;;;;10.48;5.18;;;15.70;97.90;;;;;;5057750;28;20036;-75
2022/07/14 05:28:47;;;;;;;15.43;5.65;;;15.70;97.90;;;;;;5052883;28;20032;-75
2022/07/14 05:31:13;;;;;;;14.20;6.60;;;15.70;97.90;;;;;;5057545;28;20037;-75
2022/07/14 05:33:40;;;;;;;14.85;6.32;;;15.70;97.90;;;;;;5053165;28;20013;-75
2022/07/14 05:36:07;;;;;;;15.45;6.15;;;15.70;97.90;;;;;;5055634;28;20029;-74
2022/07/14 05:38:34;;;;;;;15.40;4.75;;;15.70;97.90;;;;;;5051761;28;20090;-73
2022/07/14 05:41:01;;;;;;;12.65;5.13;;;15.70;97.90;;;;;;5055015;28;20013;-76
2022/07/14 05:43:28;;;;;;;17.70;6.13;;;15.70;97.90;;;;;;5055816;28;20014;-74
2022/07/14 05:46:01;;;;;;;14.25;5.30;;;15.70;97.80;;;;;;5055612;28;20437;-74
2022/07/14 05:48:28;;;;;;;16.65;6.88;;;15.60;97.80;;;;;;5055357;28;20017;-76
2022/07/14 05:51:01;;;;;;;13.48;5.72;;;15.60;97.80;;;;;;5054882;28;20074;-75
2022/07/14 05:53:28;;;;;;;13.68;5.20;;;15.70;97.80;;;;;;5054438;28;20020;-74
2022/07/14 05:55:54;;;;;;;19.13;6.10;;;15.60;97.70;;;;;;5055419;28;20025;-75
2022/07/14 05:58:21;;;;;;;13.45;4.95;;;15.60;97.70;;;;;;5053117;28;20033;-74
2022/07/14 06:00:48;;;;;;;17.20;5.30;;;15.60;97.70;;;;;;5054539;28;20012;-76
2022/07/14 06:03:14;;;;;;;14.32;4.50;;;15.60;97.80;;;;;;5053895;28;20009;-75
2022/07/14 06:05:41;;;;;;;14.75;4.88;;;15.60;97.80;;;;;;5053840;28;20013;-74
2022/07/14 06:08:07;;;;;;;13.20;4.53;;;15.70;97.80;;;;;;5057144;28;20032;-74
2022/07/14 06:10:34;;;;;;;13.45;4.72;;;15.70;97.80;;;;;;5051373;28;20013;-74
2022/07/14 06:13:01;;;;;;;20.00;5.72;;;15.70;97.80;;;;;;5052646;28;20021;-74
2022/07/14 06:15:27;;;;;;;14.90;5.20;;;15.70;97.90;;;;;;5052372;28;20067;-75
2022/07/14 06:17:54;;;;;;;22.20;6.15;;;15.70;97.90;;;;;;5050314;28;20173;-76
2022/07/14 06:20:21;;;;;;;15.75;5.40;;;15.70;97.80;;;;;;5051252;28;20017;-76
2022/07/14 06:22:49;;;;;;;17.65;5.15;;;15.70;97.90;;;;;;5055917;28;20468;-75
2022/07/14 06:25:16;;;;;;;16.30;5.38;;;15.70;97.90;;;;;;5051268;28;20104;-74
2022/07/14 06:27:43;;;;;;;17.90;6.03;;;15.70;97.90;;;;;;5055712;28;20025;-74
2022/07/14 06:30:10;;;;;;;16.95;5.45;;;15.70;97.90;;;;;;5052170;28;20074;-76
2022/07/14 06:32:40;;;;;;;22.08;5.55;;;15.70;98.00;;;;;;5057689;28;20429;-75
2022/07/14 06:35:08;;;;;;;17.15;7.07;;;15.70;98.00;;;;;;5051106;28;20013;-77
2022/07/14 06:37:35;;;;;;;15.25;6.88;;;15.80;98.10;;;;;;5051439;28;20017;-74
2022/07/14 06:40:04;;;;;;;19.70;5.70;;;15.70;98.00;;;;;;5055940;28;20451;-75
2022/07/14 06:42:34;;;;;;;23.98;6.57;;;15.70;98.00;;;;;;5054191;28;20020;-77
2022/07/14 06:45:01;;;;;;;23.83;7.72;;;15.70;98.00;;;;;;5054517;28;20036;-74
2022/07/14 06:47:30;;;;;;;19.50;7.03;;;15.70;98.00;;;;;;5056141;28;20137;-76
2022/07/14 06:49:58;;;;;;;28.35;11.55;;;15.70;98.00;;;;;;5058194;28;20024;-74
2022/07/14 06:52:24;;;;;;;30.38;10.82;;;15.70;98.00;;;;;;5054045;28;20013;-75
2022/07/14 06:54:52;;;;;;;38.00;12.75;;;15.80;98.00;;;;;;5049746;28;20152;-77
2022/07/14 06:57:19;;;;;;;30.77;10.88;;;15.80;98.10;;;;;;5052216;28;20111;-77
2022/07/14 06:59:46;;;;;;;28.05;11.95;;;15.70;98.00;;;;;;5055406;28;20016;-74
2022/07/14 07:02:12;;;;;;;29.90;9.65;;;15.80;98.10;;;;;;5051605;28;20036;-74
2022/07/14 07:04:39;;;;;;;18.95;7.68;;;15.80;98.10;;;;;;5049258;28;20025;-76
2022/07/14 07:07:06;;;;;;;17.95;7.22;;;15.80;98.10;;;;;;5057877;28;20132;-76
2022/07/14 07:09:32;;;;;;;17.27;6.25;;;15.80;98.20;;;;;;5052962;28;20469;-73
2022/07/14 07:11:59;;;;;;;16.90;4.93;;;15.80;98.20;;;;;;5052885;28;20028;-75
2022/07/14 07:14:25;;;;;;;14.93;3.95;;;15.80;98.20;;;;;;5052169;28;20025;-78
2022/07/14 07:16:52;;;;;;;13.00;3.30;;;15.80;98.10;;;;;;5051401;28;20458;-74
2022/07/14 07:19:19;;;;;;;13.35;3.88;;;15.80;98.10;;;;;;5051226;28;20024;-74
2022/07/14 07:21:45;;;;;;;9.43;3.83;;;15.80;98.20;;;;;;5053068;28;20056;-77
2022/07/14 07:24:12;;;;;;;13.20;3.65;;;15.80;98.20;;;;;;5048196;28;20047;-75
2022/07/14 07:26:41;;;;;;;6.22;2.80;;;15.90;98.30;;;;;;5051830;28;20029;-76
2022/07/14 07:29:08;;;;;;;4.93;2.88;;;15.90;98.30;;;;;;5050649;28;20095;-76
2022/07/14 07:31:35;;;;;;;7.30;3.28;;;15.90;98.30;;;;;;5052630;28;20535;-75
2022/07/14 07:34:02;;;;;;;5.85;2.55;;;15.90;98.40;;;;;;5051694;28;20013;-75
2022/07/14 07:36:28;;;;;;;12.07;3.95;;;15.90;98.40;;;;;;5050965;28;20021;-75
2022/07/14 07:38:55;;;;;;;6.85;3.08;;;15.90;98.40;;;;;;5051389;28;20060;-78
2022/07/14 07:41:21;;;;;;;10.43;3.95;;;15.90;98.40;;;;;;5056302;28;20381;-73
2022/07/14 07:43:48;;;;;;;8.05;4.75;;;16.00;98.50;;;;;;5053546;28;20025;-74
2022/07/14 07:46:14;;;;;;;14.13;4.13;;;16.00;98.50;;;;;;5053413;28;20043;-73
2022/07/14 07:48:41;;;;;;;17.30;5.65;;;16.00;98.50;;;;;;5056744;28;20051;-78
2022/07/14 07:51:08;;;;;;;14.57;4.22;;;16.00;98.50;;;;;;5051312;28;20017;-74
2022/07/14 07:53:34;;;;;;;11.27;4.18;;;16.00;98.50;;;;;;5051746;28;20017;-74
2022/07/14 07:56:00;;;;;;;13.52;4.80;;;16.10;98.60;;;;;;5052139;28;20036;-73
2022/07/14 07:58:27;;;;;;;13.63;5.80;;;16.10;98.60;;;;;;5055808;28;21169;-76
2022/07/14 08:00:53;;;;;;;19.52;6.45;;;16.10;98.60;;;;;;5050199;28;20480;-74
2022/07/14 08:03:20;;;;;;;24.38;6.63;;;16.10;98.60;;;;;;5051515;28;20036;-73
2022/07/14 08:05:46;;;;;;;15.25;5.88;;;16.10;98.60;;;;;;5052427;28;20086;-75
2022/07/14 08:08:13;;;;;;;19.98;7.40;;;16.10;98.60;;;;;;5054415;28;20025;-74
2022/07/14 08:10:40;;;;;;;15.32;6.03;;;16.10;98.60;;;;;;5048073;28;20029;-75
2022/07/14 08:13:08;;;;;;;17.67;5.50;;;16.10;98.70;;;;;;5051979;28;20029;-74
2022/07/14 08:15:34;;;;;;;12.50;5.53;;;16.10;98.70;;;;;;5054628;28;20036;-75
2022/07/14 08:18:01;;;;;;;12.55;5.07;;;16.10;98.70;;;;;;5047180;28;20041;-74
2022/07/14 08:20:27;;;;;;;13.82;4.47;;;16.10;98.80;;;;;;5060761;28;20490;-77
2022/07/14 08:22:54;;;;;;;19.88;5.03;;;16.10;98.80;;;;;;5055200;28;20028;-73
2022/07/14 08:25:22;;;;;;;17.23;6.75;;;16.10;98.90;;;;;;5051325;28;20033;-76
2022/07/14 08:27:48;;;;;;;19.30;6.95;;;16.20;99.10;;;;;;5049924;28;20025;-74
2022/07/14 08:30:15;;;;;;;19.67;6.53;;;16.20;99.10;;;;;;5054214;28;20066;-75
2022/07/14 08:32:50;;;;;;;22.38;5.80;;;16.20;99.20;;;;;;5050519;28;20021;-75
2022/07/14 08:35:18;;;;;;;16.50;7.13;;;16.20;99.30;;;;;;5050566;28;20028;-74
2022/07/14 08:37:46;;;;;;;25.95;6.25;;;16.20;99.40;;;;;;5052180;28;20115;-75
2022/07/14 08:40:15;;;;;;;17.98;6.75;;;16.30;99.50;;;;;;5052873;28;20479;-76
2022/07/14 08:42:48;;;;;;;14.32;5.05;;;16.30;99.50;;;;;;5050179;28;21039;-77
2022/07/14 08:45:17;;;;;;;19.15;7.28;;;16.30;99.50;;;;;;5057118;28;20020;-75
2022/07/14 08:47:44;;;;;;;17.30;6.35;;;16.40;99.50;;;;;;5051593;28;20764;-73
2022/07/14 08:50:13;;;;;;;21.35;5.82;;;16.40;99.50;;;;;;5049697;28;20032;-76
2022/07/14 08:52:41;;;;;;;13.30;5.10;;;16.40;99.40;;;;;;5050788;28;20112;-76
2022/07/14 08:55:10;;;;;;;19.30;5.65;;;16.40;99.40;;;;;;5039810;28;20397;-74
2022/07/14 08:57:38;;;;;;;14.55;3.78;;;16.40;99.30;;;;;;5047825;28;20033;-75
2022/07/14 09:00:09;;;;;;;14.77;5.25;;;16.40;99.20;;;;;;5047890;28;20029;-75
2022/07/14 09:02:37;;;;;;;11.95;4.85;;;16.40;99.20;;;;;;5050747;28;20044;-75
2022/07/14 09:05:05;;;;;;;14.02;5.22;;;16.40;99.20;;;;;;5048682;28;20449;-74
2022/07/14 09:07:37;;;;;;;16.95;6.03;;;16.40;99.20;;;;;;5053651;28;20480;-75
2022/07/14 09:10:07;;;;;;;11.30;4.53;;;16.50;99.20;;;;;;5036189;28;20381;-75
2022/07/14 09:12:35;;;;;;;19.13;6.43;;;16.50;99.20;;;;;;5050654;28;20107;-76
2022/07/14 09:17:52;;;;;;;21.15;4.97;;;16.60;99.10;;;;;;5051959;28;20056;-74
2022/07/14 09:20:19;;;;;;;18.63;5.05;;;16.60;99.00;;;;;;5057928;28;20112;-75
2022/07/14 09:22:47;;;;;;;14.25;4.28;;;16.70;98.90;;;;;;5052289;28;20112;-77
2022/07/14 09:25:16;;;;;;;20.42;4.38;;;16.70;98.90;;;;;;5055678;28;20036;-77
2022/07/14 09:27:47;;;;;;;15.10;4.07;;;16.80;98.90;;;;;;5053305;28;20507;-74
2022/07/14 09:30:16;;;;;;;19.60;5.40;;;16.80;98.80;;;;;;5058115;28;20025;-75
2022/07/14 09:32:47;;;;;;;23.08;5.10;;;16.80;98.70;;;;;;5056752;28;20031;-75
2022/07/14 09:35:16;;;;;;;20.17;3.92;;;16.90;98.70;;;;;;5057234;28;20041;-77
2022/07/14 09:37:43;;;;;;;9.02;3.75;;;16.90;98.50;;;;;;5058216;28;20063;-73
2022/07/14 09:40:27;;;;;;;10.65;2.90;;;17.00;98.50;;;;;;5053540;28;20489;-75
2022/07/14 09:43:00;;;;;;;12.45;3.97;;;17.00;98.30;;;;;;5053084;28;20024;-75
2022/07/14 09:45:54;;;;;;;10.50;4.00;;;17.00;98.20;;;;;;5053341;28;20427;-74
2022/07/14 09:48:21;;;;;;;14.43;3.35;;;17.00;98.10;;;;;;5054897;28;20025;-74
2022/07/14 09:50:56;;;;;;;7.47;3.45;;;17.00;98.00;;;;;;5056914;28;20032;-74
2022/07/14 09:53:31;;;;;;;10.45;3.30;;;17.10;97.90;;;;;;5054286;28;20025;-74
2022/07/14 09:56:03;;;;;;;12.63;3.88;;;17.10;97.80;;;;;;5056448;28;20037;-77
2022/07/14 09:58:33;;;;;;;9.73;3.22;;;17.10;97.70;;;;;;5054285;28;20154;-76
2022/07/14 10:01:03;;;;;;;8.65;2.53;;;17.20;97.60;;;;;;5053127;28;20495;-74
2022/07/14 10:03:32;;;;;;;10.05;3.13;;;17.20;97.50;;;;;;5056307;28;20100;-74
2022/07/14 10:06:00;;;;;;;13.10;2.95;;;17.30;97.40;;;;;;5052370;28;20535;-73
2022/07/14 10:08:29;;;;;;;11.88;4.35;;;17.30;97.30;;;;;;5056773;28;20028;-74
2022/07/14 12:21:02;;;;;;;12.63;3.63;;;18.50;90.70;;;;;;5040204;28;20834;-71
2022/07/14 12:23:29;;;;;;;10.75;2.72;;;18.90;90.00;;;;;;5029321;28;20030;-71
2022/07/14 12:26:01;;;;;;;10.48;2.70;;;18.90;89.00;;;;;;5030024;28;20025;-72
2022/07/14 12:28:28;;;;;;;8.70;3.38;;;19.00;88.60;;;;;;5028796;28;20124;-80
2022/07/14 12:30:57;;;;;;;13.93;3.28;;;19.10;88.20;;;;;;5031050;28;20022;-77
2022/07/14 12:33:32;;;;;;;11.27;2.83;;;19.10;87.70;;;;;;5035923;28;20591;-73
2022/07/14 12:36:00;;;;;;;15.20;3.47;;;19.10;87.20;;;;;;5032459;28;20160;-71
2022/07/14 12:38:31;;;;;;;11.52;3.58;;;19.20;86.90;;;;;;5032483;28;20030;-74
2022/07/14 12:41:00;;;;;;;14.55;3.58;;;19.30;86.70;;;;;;5030600;28;20391;-73
2022/07/14 12:43:30;;;;;;;4.70;2.03;;;19.30;86.10;;;;;;5023982;28;20039;-72
2022/07/14 12:46:02;;;;;;;9.55;3.28;;;19.30;86.20;;;;;;5028146;28;20030;-71
2022/07/14 12:48:56;;;;;;;7.68;2.75;;;19.30;85.30;;;;;;5024871;28;20052;-71
2022/07/14 12:51:24;;;;;;;12.93;2.70;;;19.30;84.70;;;;;;5025397;28;20057;-72
2022/07/14 12:54:01;;;;;;;11.68;2.42;;;19.30;84.60;;;;;;5025046;28;20419;-71
2022/07/14 12:56:34;;;;;;;10.80;2.85;;;19.40;84.20;;;;;;5026976;28;20026;-72
2022/07/14 12:59:03;;;;;;;8.40;2.53;;;19.40;84.00;;;;;;5026039;28;20013;-71
2022/07/14 13:01:30;;;;;;;13.85;2.25;;;19.40;84.40;;;;;;5023191;28;20025;-71
2022/07/14 13:04:02;;;;;;;12.90;3.28;;;19.40;83.60;;;;;;5023123;28;20061;-71
2022/07/14 13:06:42;;;;;;;12.68;2.53;;;19.40;83.60;;;;;;5024451;28;20064;-71
2022/07/14 13:09:14;;;;;;;6.63;2.03;;;19.40;83.50;;;;;;5028312;28;20080;-71
2022/07/14 13:11:42;;;;;;;12.55;3.55;;;19.40;83.60;;;;;;5031223;28;20064;-72
2022/07/14 13:14:08;;;;;;;14.65;3.00;;;19.40;83.50;;;;;;5023580;28;20018;-71
2022/07/14 13:16:35;;;;;;;9.77;2.63;;;19.40;83.60;;;;;;5040236;28;20044;-71
2022/07/14 13:19:14;;;;;;;11.63;2.83;;;19.40;83.70;;;;;;5030935;28;20045;-71
2022/07/14 13:22:04;;;;;;;10.63;2.90;;;19.40;83.80;;;;;;5044336;28;20377;-71
2022/07/14 13:24:36;;;;;;;11.55;3.22;;;19.40;83.80;;;;;;5026942;28;20034;-71
2022/07/14 13:27:04;;;;;;;10.43;2.92;;;19.40;83.80;;;;;;5035247;28;20021;-71
2022/07/14 13:29:33;;;;;;;8.93;3.08;;;19.40;83.90;;;;;;5036429;28;20114;-71
2022/07/14 13:32:00;;;;;;;9.98;3.35;;;19.40;83.70;;;;;;5035300;28;20812;-71
2022/07/14 13:34:28;;;;;;;11.00;3.30;;;19.40;83.50;;;;;;5030904;28;20029;-73
2022/07/14 13:36:55;;;;;;;14.85;2.95;;;19.40;83.40;;;;;;5031814;28;20037;-71
2022/07/14 13:39:23;;;;;;;18.00;3.42;;;19.30;83.20;;;;;;5035052;28;20025;-72
2022/07/14 13:41:50;;;;;;;12.30;4.32;;;19.30;83.30;;;;;;5043083;28;20025;-71
2022/07/14 13:44:17;;;;;;;23.23;3.50;;;19.30;83.50;;;;;;5034197;28;20030;-72
2022/07/14 13:46:45;;;;;;;15.52;2.85;;;19.30;83.60;;;;;;5032066;28;20126;-71
2022/07/14 13:49:13;;;;;;;10.18;2.60;;;19.30;83.60;;;;;;5030885;28;20037;-71
2022/07/14 13:54:24;;;;;;;8.50;3.90;;;19.30;83.90;;;;;;5033859;28;20502;-73
2022/07/14 13:56:51;;;;;;;12.13;3.10;;;19.20;83.90;;;;;;5030964;28;20427;-77
2022/07/14 13:59:17;;;;;;;11.35;3.22;;;19.20;83.70;;;;;;5033016;28;20025;-72
2022/07/14 14:01:45;;;;;;;10.13;3.95;;;19.20;83.60;;;;;;5036363;28;20034;-72
2022/07/14 14:04:13;;;;;;;16.88;3.40;;;19.20;83.60;;;;;;5039035;28;20024;-71
2022/07/14 14:06:41;;;;;;;10.43;2.83;;;19.20;83.80;;;;;;5039311;28;20499;-71
2022/07/14 14:09:09;;;;;;;17.33;3.40;;;19.20;83.80;;;;;;5033827;28;20033;-72
2022/07/14 14:11:37;;;;;;;16.58;4.43;;;19.20;83.70;;;;;;5030853;28;20029;-72
2022/07/14 14:14:04;;;;;;;10.43;2.55;;;19.20;83.50;;;;;;5050622;28;20022;-73
2022/07/14 14:16:31;;;;;;;19.55;4.25;;;19.20;84.00;;;;;;5032634;28;20538;-75
2022/07/14 14:18:58;;;;;;;7.68;3.22;;;19.10;83.60;;;;;;5034149;28;20044;-79
2022/07/14 14:21:25;;;;;;;12.90;4.10;;;19.10;83.90;;;;;;5034033;28;20495;-80
2022/07/14 14:23:53;;;;;;;18.63;3.25;;;19.10;83.90;;;;;;5030807;28;20501;-72
2022/07/14 14:26:20;;;;;;;22.42;4.75;;;19.00;83.70;;;;;;5047585;28;20391;-72
2022/07/14 14:28:47;;;;;;;9.82;2.65;;;19.00;83.70;;;;;;5034870;28;20029;-72
2022/07/14 14:31:13;;;;;;;10.93;3.08;;;19.00;83.70;;;;;;5032855;28;20131;-74
2022/07/14 14:33:40;;;;;;;11.27;2.70;;;19.00;83.50;;;;;;5031593;28;20028;-77
2022/07/14 14:36:06;;;;;;;13.55;4.53;;;18.90;83.40;;;;;;5013284;28;20491;-76
2022/07/14 14:38:34;;;;;;;10.90;3.53;;;18.90;83.50;;;;;;5035364;28;20052;-72
2022/07/14 14:41:01;;;;;;;14.73;4.45;;;18.90;83.70;;;;;;5033872;28;20021;-72
2022/07/14 14:43:27;;;;;;;24.95;4.10;;;18.90;83.80;;;;;;5037484;28;20025;-72
2022/07/14 14:45:54;;;;;;;15.25;3.60;;;18.80;83.80;;;;;;5029081;28;20113;-72
2022/07/14 14:48:21;;;;;;;14.38;3.63;;;18.80;84.00;;;;;;5032228;28;20017;-74
2022/07/14 14:50:47;;;;;;;15.45;4.70;;;18.80;84.30;;;;;;5032769;28;20021;-72
2022/07/14 14:53:14;;;;;;;19.23;4.78;;;18.70;84.40;;;;;;5033276;28;20026;-72
2022/07/14 14:55:41;;;;;;;8.82;3.72;;;18.70;84.30;;;;;;5029046;28;20021;-72
2022/07/14 14:58:08;;;;;;;15.65;4.30;;;18.60;84.20;;;;;;5029438;28;20084;-72
2022/07/14 15:00:34;;;;;;;17.60;3.95;;;18.60;84.20;;;;;;5033474;28;20418;-73
2022/07/14 15:03:01;;;;;;;9.00;2.65;;;18.50;84.30;;;;;;5036870;28;20452;-71